Alps Wideshine — 9HA2472 — position and weather

sailwx.info

Track history (hours):
 
Tides and Currents Weather Stations Pressure Air Temp Water Temp Dewpoint Dewpoint Depression Visibility Wind Speed Wind Dir Waves Ship Positions

Alps Wideshine

Last reported at 2016-Nov-25 19:33 UTC. Time now 2016-Dec-06 14:15 UTC.
Position N 40°27' W 073°49'.
Warning: this ship's position is 10 days out of date.

Length 107 m; draft 5.3 m.

Type: Tanker. MMSI: 248694000.

Date/timePositionNaut miles runAvg speedWind from/ knotsBaromVisibWave heightAir tempDewpointWater temp
2016-Nov-25 19:33N 40°27' W 073°49'10 9.9
2016-Nov-25 18:33N 40°32' W 074°01'7 7.2
2016-Nov-25 17:32N 40°39' W 074°03'0 0.0
2016-Nov-25 16:32N 40°39' W 074°03'0 0.0
2016-Nov-25 15:32N 40°39' W 074°03'0 0.0
2016-Nov-25 14:32N 40°39' W 074°03'0 0.0
2016-Nov-25 13:32N 40°39' W 074°03'1 0.7
2016-Nov-25 12:34N 40°39' W 074°04'6 6.0
2016-Nov-25 11:33N 40°38' W 074°12'0 0.0
2016-Nov-25 05:32N 40°38' W 074°12'0 0.0
2016-Nov-25 04:32N 40°38' W 074°12'0 0.0
2016-Nov-25 03:26N 40°38' W 074°12'0 0.0
2016-Nov-25 02:32N 40°38' W 074°12'0 0.0
2016-Nov-25 01:26N 40°38' W 074°12'0 0.0
2016-Nov-24 23:26N 40°38' W 074°12'0 0.0
2016-Nov-24 22:32N 40°38' W 074°12'0 0.0
2016-Nov-24 21:11N 40°38' W 074°12'0 0.0
2016-Nov-24 11:31N 40°38' W 074°12'0 0.0
2016-Nov-24 10:33N 40°38' W 074°12'6 5.8
2016-Nov-24 09:33N 40°39' W 074°04'8 7.9
2016-Nov-24 08:33N 40°32' W 074°01'10 9.8
2016-Nov-24 07:32N 40°28' W 073°49'  
Track history (hours):
 
Tides and Currents Weather Stations Pressure Air Temp Water Temp Dewpoint Dewpoint Depression Visibility Wind Speed Wind Dir Waves Ship Positions

Alps Wideshine

Last reported at 2016-Nov-25 19:33 UTC. Time now 2016-Dec-06 14:15 UTC.
Position N 40°27' W 073°49'.
Warning: this ship's position is 10 days out of date.

Length 107 m; draft 5.3 m.

Type: Tanker. MMSI: 248694000.

Date/timePositionNaut miles runAvg speedWind from/ knotsBaromVisibWave heightAir tempDewpointWater temp
2016-Nov-25 19:33N 40°27' W 073°49'10 9.9
2016-Nov-25 18:33N 40°32' W 074°01'7 7.2
2016-Nov-25 17:32N 40°39' W 074°03'0 0.0
2016-Nov-25 16:32N 40°39' W 074°03'0 0.0
2016-Nov-25 15:32N 40°39' W 074°03'0 0.0
2016-Nov-25 14:32N 40°39' W 074°03'0 0.0
2016-Nov-25 13:32N 40°39' W 074°03'1 0.7
2016-Nov-25 12:34N 40°39' W 074°04'6 6.0
2016-Nov-25 11:33N 40°38' W 074°12'0 0.0
2016-Nov-25 05:32N 40°38' W 074°12'0 0.0
2016-Nov-25 04:32N 40°38' W 074°12'0 0.0
2016-Nov-25 03:26N 40°38' W 074°12'0 0.0
2016-Nov-25 02:32N 40°38' W 074°12'0 0.0
2016-Nov-25 01:26N 40°38' W 074°12'0 0.0
2016-Nov-24 23:26N 40°38' W 074°12'0 0.0
2016-Nov-24 22:32N 40°38' W 074°12'0 0.0
2016-Nov-24 21:11N 40°38' W 074°12'0 0.0
2016-Nov-24 11:31N 40°38' W 074°12'0 0.0
2016-Nov-24 10:33N 40°38' W 074°12'6 5.8
2016-Nov-24 09:33N 40°39' W 074°04'8 7.9
2016-Nov-24 08:33N 40°32' W 074°01'10 9.8
2016-Nov-24 07:32N 40°28' W 073°49'  

Dump ship's entire track history